AAY80 KSGF-KLAS
Flight info
| Callsign | AAY80 |
|---|---|
| Flight time | N/A |
| Altitude | 34000 |
| Route | CNU ICT GCK DVC TYEGR CHOWW4 |
| Aircraft | A320/M-SDE3FGHIRWY/LB1 |
Departure
| Time | 2026-05-09 07:57 |
|---|---|
| Airport | Springfield Branson National Airport (KSGF) |
Arrival
| Time | N/A |
|---|---|
| Airport | Harry Reid International Airport (KLAS) |
| Time | Latitude | Longitude | Altitude | Speed | Heading |
|---|---|---|---|---|---|
| 2026-05-09 07:27 | 37.24059 | -93.39527 | 1269 ft | 0 kts | 272° |
| 2026-05-09 07:48 | 37.24059 | -93.39517 | 1268 ft | 4 kts | 272° |
| 2026-05-09 07:48 | 37.24058 | -93.39483 | 1268 ft | 4 kts | 272° |
| 2026-05-09 07:48 | 37.24057 | -93.39452 | 1268 ft | 2 kts | 272° |
| 2026-05-09 07:48 | 37.24057 | -93.39451 | 1268 ft | 0 kts | 272° |
| 2026-05-09 07:51 | 37.24057 | -93.39454 | 1268 ft | 2 kts | 280° |
| 2026-05-09 07:52 | 37.24106 | -93.39475 | 1272 ft | 13 kts | 331° |
| 2026-05-09 07:52 | 37.24183 | -93.39530 | 1271 ft | 12 kts | 354° |
| 2026-05-09 07:52 | 37.24282 | -93.39490 | 1271 ft | 18 kts | 29° |
| 2026-05-09 07:52 | 37.24365 | -93.39386 | 1273 ft | 15 kts | 52° |
| 2026-05-09 07:53 | 37.24425 | -93.39296 | 1277 ft | 12 kts | 39° |
| 2026-05-09 07:53 | 37.24519 | -93.39325 | 1276 ft | 18 kts | 321° |
| 2026-05-09 07:53 | 37.24619 | -93.39426 | 1276 ft | 19 kts | 322° |
| 2026-05-09 07:53 | 37.24722 | -93.39526 | 1279 ft | 19 kts | 322° |
| 2026-05-09 07:54 | 37.24830 | -93.39632 | 1278 ft | 21 kts | 321° |
| 2026-05-09 07:54 | 37.24945 | -93.39744 | 1278 ft | 22 kts | 322° |
| 2026-05-09 07:54 | 37.25070 | -93.39870 | 1275 ft | 24 kts | 321° |
| 2026-05-09 07:54 | 37.25208 | -93.40005 | 1273 ft | 26 kts | 322° |
| 2026-05-09 07:55 | 37.25347 | -93.40141 | 1274 ft | 17 kts | 323° |
| 2026-05-09 07:55 | 37.25409 | -93.40182 | 1275 ft | 8 kts | 5° |
| 2026-05-09 07:55 | 37.25460 | -93.40132 | 1272 ft | 12 kts | 50° |
| 2026-05-09 07:55 | 37.25507 | -93.40051 | 1271 ft | 7 kts | 64° |
| 2026-05-09 07:56 | 37.25493 | -93.40020 | 1270 ft | 0 kts | 141° |
| 2026-05-09 07:56 | 37.25467 | -93.39995 | 1270 ft | 29 kts | 142° |
| 2026-05-09 07:56 | 37.25094 | -93.39633 | 1276 ft | 101 kts | 141° |
| 2026-05-09 07:56 | 37.24385 | -93.38932 | 1287 ft | 156 kts | 142° |
| 2026-05-09 07:57 | 37.23512 | -93.38071 | 1903 ft | 157 kts | 143° |
| 2026-05-09 07:57 | 37.22630 | -93.37263 | 2587 ft | 159 kts | 163° |
| 2026-05-09 07:57 | 37.21546 | -93.37277 | 3111 ft | 164 kts | 210° |
| 2026-05-09 07:57 | 37.20708 | -93.38294 | 3416 ft | 179 kts | 246° |
| 2026-05-09 07:58 | 37.20531 | -93.39877 | 3646 ft | 196 kts | 282° |
| 2026-05-09 07:58 | 37.20875 | -93.41637 | 3878 ft | 221 kts | 286° |
| 2026-05-09 07:58 | 37.21281 | -93.43602 | 4257 ft | 245 kts | 286° |
| 2026-05-09 07:58 | 37.21727 | -93.45752 | 4859 ft | 260 kts | 286° |
| 2026-05-09 07:59 | 37.22184 | -93.47974 | 5704 ft | 265 kts | 287° |
| 2026-05-09 07:59 | 37.22644 | -93.50235 | 6583 ft | 269 kts | 287° |
| 2026-05-09 07:59 | 37.23105 | -93.52519 | 7438 ft | 272 kts | 287° |
| 2026-05-09 07:59 | 37.23568 | -93.54830 | 8311 ft | 274 kts | 287° |
| 2026-05-09 08:00 | 37.24035 | -93.57162 | 9177 ft | 277 kts | 287° |
| 2026-05-09 08:00 | 37.24505 | -93.59517 | 10045 ft | 279 kts | 287° |
| 2026-05-09 08:00 | 37.24986 | -93.61925 | 10418 ft | 300 kts | 287° |
| 2026-05-09 08:00 | 37.25516 | -93.64564 | 10641 ft | 324 kts | 287° |
| 2026-05-09 08:01 | 37.26083 | -93.67388 | 10959 ft | 341 kts | 286° |
| 2026-05-09 08:01 | 37.26664 | -93.70303 | 11600 ft | 346 kts | 286° |
| 2026-05-09 08:01 | 37.27248 | -93.73244 | 12363 ft | 348 kts | 286° |
| 2026-05-09 08:01 | 37.27834 | -93.76206 | 13151 ft | 350 kts | 286° |
| 2026-05-09 08:02 | 37.28423 | -93.79185 | 13880 ft | 353 kts | 286° |
| 2026-05-09 08:02 | 37.29014 | -93.82182 | 14545 ft | 354 kts | 286° |
| 2026-05-09 08:02 | 37.29608 | -93.85194 | 15216 ft | 356 kts | 286° |
| 2026-05-09 08:02 | 37.30206 | -93.88216 | 15893 ft | 357 kts | 286° |
| 2026-05-09 08:03 | 37.30805 | -93.91248 | 16544 ft | 359 kts | 286° |
| 2026-05-09 08:03 | 37.31406 | -93.94297 | 17185 ft | 360 kts | 286° |
| 2026-05-09 08:03 | 37.32009 | -93.97362 | 17805 ft | 362 kts | 286° |
| 2026-05-09 08:03 | 37.32614 | -94.00442 | 18400 ft | 364 kts | 286° |
| 2026-05-09 08:04 | 37.33224 | -94.03537 | 18918 ft | 366 kts | 285° |
| 2026-05-09 08:04 | 37.33835 | -94.06650 | 19437 ft | 368 kts | 285° |
| 2026-05-09 08:04 | 37.34448 | -94.09787 | 19931 ft | 371 kts | 285° |
| 2026-05-09 08:04 | 37.35063 | -94.12941 | 20423 ft | 373 kts | 285° |
| 2026-05-09 08:05 | 37.35679 | -94.16116 | 20902 ft | 375 kts | 285° |
| 2026-05-09 08:05 | 37.36299 | -94.19314 | 21398 ft | 377 kts | 285° |
| 2026-05-09 08:05 | 37.36923 | -94.22527 | 21839 ft | 380 kts | 285° |
| 2026-05-09 08:05 | 37.37553 | -94.25767 | 22291 ft | 383 kts | 285° |
| 2026-05-09 08:06 | 37.38186 | -94.29025 | 22746 ft | 385 kts | 285° |
| 2026-05-09 08:06 | 37.38821 | -94.32312 | 23192 ft | 388 kts | 285° |
| 2026-05-09 08:06 | 37.39458 | -94.35618 | 23600 ft | 390 kts | 285° |
| 2026-05-09 08:06 | 37.40089 | -94.38895 | 23969 ft | 392 kts | 285° |
| 2026-05-09 08:07 | 37.40742 | -94.42283 | 24327 ft | 395 kts | 285° |
| 2026-05-09 08:07 | 37.41381 | -94.45600 | 24679 ft | 396 kts | 285° |
| 2026-05-09 08:07 | 37.42030 | -94.48977 | 25038 ft | 398 kts | 285° |
| 2026-05-09 08:07 | 37.42682 | -94.52372 | 25391 ft | 400 kts | 285° |
| 2026-05-09 08:08 | 37.43335 | -94.55784 | 25738 ft | 402 kts | 285° |
| 2026-05-09 08:08 | 37.43990 | -94.59210 | 26071 ft | 404 kts | 285° |
| 2026-05-09 08:08 | 37.44649 | -94.62658 | 26404 ft | 406 kts | 285° |
| 2026-05-09 08:08 | 37.45307 | -94.66122 | 26731 ft | 408 kts | 285° |
| 2026-05-09 08:09 | 37.45970 | -94.69603 | 27054 ft | 410 kts | 285° |
| 2026-05-09 08:09 | 37.46639 | -94.73103 | 27359 ft | 412 kts | 285° |
| 2026-05-09 08:09 | 37.47306 | -94.76618 | 27650 ft | 414 kts | 285° |
| 2026-05-09 08:09 | 37.47971 | -94.80154 | 27947 ft | 416 kts | 285° |
| 2026-05-09 08:10 | 37.48640 | -94.83703 | 28234 ft | 418 kts | 285° |
| 2026-05-09 08:10 | 37.49311 | -94.87270 | 28529 ft | 420 kts | 285° |
| 2026-05-09 08:10 | 37.49979 | -94.90845 | 28907 ft | 419 kts | 285° |
| 2026-05-09 08:10 | 37.50647 | -94.94413 | 29332 ft | 418 kts | 285° |
| 2026-05-09 08:11 | 37.51313 | -94.97972 | 29692 ft | 418 kts | 286° |
| 2026-05-09 08:11 | 37.51980 | -95.01534 | 30045 ft | 418 kts | 286° |
| 2026-05-09 08:11 | 37.52644 | -95.05091 | 30374 ft | 417 kts | 286° |
| 2026-05-09 08:11 | 37.53307 | -95.08650 | 30708 ft | 417 kts | 286° |
| 2026-05-09 08:12 | 37.54626 | -95.15748 | 31383 ft | 415 kts | 286° |
| 2026-05-09 08:12 | 37.55280 | -95.19288 | 31704 ft | 415 kts | 286° |
| 2026-05-09 08:12 | 37.55935 | -95.22828 | 32047 ft | 414 kts | 287° |
| 2026-05-09 08:13 | 37.56587 | -95.26364 | 32387 ft | 414 kts | 287° |
| 2026-05-09 08:13 | 37.57238 | -95.29893 | 32726 ft | 413 kts | 287° |
| 2026-05-09 08:13 | 37.57889 | -95.33420 | 33037 ft | 413 kts | 287° |
| 2026-05-09 08:13 | 37.58537 | -95.36946 | 33338 ft | 413 kts | 287° |
| 2026-05-09 08:14 | 37.59184 | -95.40472 | 33649 ft | 413 kts | 287° |
| 2026-05-09 08:14 | 37.59830 | -95.44000 | 33885 ft | 413 kts | 287° |
| 2026-05-09 08:14 | 37.61119 | -95.51074 | 33914 ft | 414 kts | 287° |
| 2026-05-09 08:15 | 37.62399 | -95.58158 | 33920 ft | 415 kts | 286° |
| 2026-05-09 08:15 | 37.63041 | -95.65436 | 33912 ft | 419 kts | 279° |
| 2026-05-09 08:16 | 37.63533 | -95.72756 | 33905 ft | 419 kts | 279° |
| 2026-05-09 08:16 | 37.64022 | -95.80078 | 33911 ft | 419 kts | 279° |
| 2026-05-09 08:17 | 37.64502 | -95.87401 | 33909 ft | 419 kts | 279° |
| 2026-05-09 08:17 | 37.64987 | -95.94719 | 33917 ft | 419 kts | 279° |
| 2026-05-09 08:18 | 37.65466 | -96.02040 | 33910 ft | 419 kts | 279° |
| 2026-05-09 08:18 | 37.65934 | -96.09364 | 33878 ft | 419 kts | 279° |
| 2026-05-09 08:19 | 37.66395 | -96.16692 | 33888 ft | 419 kts | 279° |
| 2026-05-09 08:19 | 37.66858 | -96.24030 | 33897 ft | 419 kts | 279° |
| 2026-05-09 08:20 | 37.67319 | -96.31374 | 33898 ft | 420 kts | 278° |
| 2026-05-09 08:20 | 37.67775 | -96.38720 | 33902 ft | 420 kts | 278° |
| 2026-05-09 08:21 | 37.68226 | -96.46068 | 33908 ft | 420 kts | 278° |
| 2026-05-09 08:21 | 37.68675 | -96.53419 | 33901 ft | 420 kts | 278° |
| 2026-05-09 08:22 | 37.69120 | -96.60774 | 33918 ft | 420 kts | 278° |
| 2026-05-09 08:22 | 37.69554 | -96.68124 | 33925 ft | 420 kts | 278° |
| 2026-05-09 08:23 | 37.69986 | -96.75486 | 33928 ft | 420 kts | 278° |
| 2026-05-09 08:23 | 37.70414 | -96.82838 | 33930 ft | 420 kts | 278° |
| 2026-05-09 08:24 | 37.70835 | -96.90205 | 33901 ft | 421 kts | 278° |
| 2026-05-09 08:24 | 37.71254 | -96.97586 | 33906 ft | 422 kts | 278° |
| 2026-05-09 08:25 | 37.71670 | -97.04973 | 33920 ft | 422 kts | 277° |
| 2026-05-09 08:25 | 37.72080 | -97.12377 | 34218 ft | 423 kts | 277° |
| 2026-05-09 08:26 | 37.72280 | -97.16078 | 34514 ft | 422 kts | 277° |
| 2026-05-09 08:26 | 37.72480 | -97.19782 | 34790 ft | 422 kts | 277° |
| 2026-05-09 08:26 | 37.72680 | -97.23475 | 35062 ft | 421 kts | 277° |
| 2026-05-09 08:26 | 37.72881 | -97.27165 | 35322 ft | 421 kts | 277° |
| 2026-05-09 08:27 | 37.73078 | -97.30799 | 35627 ft | 420 kts | 278° |
| 2026-05-09 08:27 | 37.73276 | -97.34522 | 35868 ft | 419 kts | 278° |
| 2026-05-09 08:27 | 37.73665 | -97.41814 | 35933 ft | 418 kts | 278° |
| 2026-05-09 08:28 | 37.74056 | -97.49191 | 35932 ft | 418 kts | 278° |
| 2026-05-09 08:28 | 37.74428 | -97.56469 | 35909 ft | 418 kts | 278° |
| 2026-05-09 08:29 | 37.74848 | -97.63796 | 35911 ft | 419 kts | 278° |
| 2026-05-09 08:29 | 37.75360 | -97.71131 | 35903 ft | 419 kts | 279° |
| 2026-05-09 08:30 | 37.75882 | -97.78473 | 35907 ft | 419 kts | 279° |
| 2026-05-09 08:30 | 37.76382 | -97.85817 | 35906 ft | 420 kts | 278° |
| 2026-05-09 08:31 | 37.76869 | -97.93168 | 35909 ft | 420 kts | 278° |
| 2026-05-09 08:31 | 37.77347 | -98.00521 | 35885 ft | 420 kts | 278° |
| 2026-05-09 08:32 | 37.77820 | -98.07884 | 35893 ft | 421 kts | 278° |
| 2026-05-09 08:33 | 37.78537 | -98.18945 | 35900 ft | 421 kts | 278° |
| 2026-05-09 08:33 | 37.79005 | -98.26324 | 35906 ft | 421 kts | 278° |
| 2026-05-09 08:34 | 37.79464 | -98.33705 | 35907 ft | 421 kts | 278° |
| 2026-05-09 08:34 | 37.79918 | -98.41094 | 35897 ft | 422 kts | 278° |
| 2026-05-09 08:35 | 37.80371 | -98.48484 | 35929 ft | 422 kts | 278° |
| 2026-05-09 08:35 | 37.80748 | -98.54630 | 35944 ft | 422 kts | 278° |
| 2026-05-09 08:36 | 37.81193 | -98.62032 | 35954 ft | 422 kts | 278° |
| 2026-05-09 08:36 | 37.81703 | -98.70632 | 35963 ft | 422 kts | 278° |
| 2026-05-09 08:37 | 37.82070 | -98.76837 | 35942 ft | 422 kts | 277° |
| 2026-05-09 08:37 | 37.82505 | -98.84252 | 35943 ft | 423 kts | 277° |
| 2026-05-09 08:38 | 37.82931 | -98.91670 | 35944 ft | 423 kts | 277° |
| 2026-05-09 08:38 | 37.83345 | -98.99047 | 35938 ft | 423 kts | 277° |
| 2026-05-09 08:39 | 37.83765 | -99.06529 | 35927 ft | 423 kts | 277° |
| 2026-05-09 08:39 | 37.84184 | -99.13954 | 35929 ft | 423 kts | 277° |
| 2026-05-09 08:40 | 37.84590 | -99.21321 | 35930 ft | 423 kts | 277° |
| 2026-05-09 08:40 | 37.84996 | -99.28740 | 35929 ft | 422 kts | 277° |
| 2026-05-09 08:41 | 37.85398 | -99.36149 | 35928 ft | 422 kts | 277° |
| 2026-05-09 08:41 | 37.85790 | -99.43560 | 35927 ft | 422 kts | 277° |
| 2026-05-09 08:42 | 37.86179 | -99.50970 | 35915 ft | 422 kts | 277° |
| 2026-05-09 08:42 | 37.86564 | -99.58385 | 35923 ft | 422 kts | 277° |
| 2026-05-09 08:43 | 37.86947 | -99.65803 | 35942 ft | 423 kts | 277° |
| 2026-05-09 08:43 | 37.87328 | -99.73227 | 35958 ft | 422 kts | 277° |
| 2026-05-09 08:44 | 37.87697 | -99.80600 | 35970 ft | 423 kts | 276° |
| 2026-05-09 08:44 | 37.88055 | -99.88027 | 35959 ft | 423 kts | 276° |
| 2026-05-09 08:45 | 37.88413 | -99.95458 | 35968 ft | 423 kts | 276° |
| 2026-05-09 08:45 | 37.88778 | -100.02900 | 35968 ft | 424 kts | 276° |
| 2026-05-09 08:46 | 37.89141 | -100.10350 | 35963 ft | 424 kts | 276° |
| 2026-05-09 08:46 | 37.89486 | -100.17806 | 35957 ft | 424 kts | 276° |
| 2026-05-09 08:47 | 37.89823 | -100.25270 | 35928 ft | 425 kts | 276° |
| 2026-05-09 08:47 | 37.90169 | -100.32746 | 35919 ft | 425 kts | 276° |
| 2026-05-09 08:48 | 37.90515 | -100.40226 | 35938 ft | 426 kts | 276° |
| 2026-05-09 08:48 | 37.90848 | -100.47715 | 35955 ft | 426 kts | 276° |
| 2026-05-09 08:49 | 37.91165 | -100.55206 | 35976 ft | 426 kts | 275° |
| 2026-05-09 08:49 | 37.91489 | -100.62705 | 35971 ft | 427 kts | 275° |
| 2026-05-09 08:50 | 37.91816 | -100.70212 | 35984 ft | 427 kts | 275° |
| 2026-05-09 08:50 | 37.92070 | -100.77684 | 35979 ft | 428 kts | 274° |
| 2026-05-09 08:51 | 37.92204 | -100.85269 | 35980 ft | 428 kts | 273° |
| 2026-05-09 08:51 | 37.92317 | -100.92763 | 35965 ft | 428 kts | 274° |
| 2026-05-09 08:52 | 37.92448 | -101.00299 | 35953 ft | 428 kts | 274° |
| 2026-05-09 08:52 | 37.92595 | -101.07834 | 35930 ft | 428 kts | 274° |
| 2026-05-09 08:53 | 37.92736 | -101.15362 | 35928 ft | 428 kts | 274° |
| 2026-05-09 08:53 | 37.92867 | -101.22897 | 35905 ft | 428 kts | 274° |
| 2026-05-09 08:54 | 37.92998 | -101.30433 | 35911 ft | 428 kts | 274° |
| 2026-05-09 08:54 | 37.93117 | -101.37968 | 35904 ft | 428 kts | 273° |
| 2026-05-09 08:55 | 37.93230 | -101.45504 | 35903 ft | 428 kts | 273° |
| 2026-05-09 08:55 | 37.93340 | -101.53036 | 35909 ft | 427 kts | 273° |
| 2026-05-09 08:56 | 37.93451 | -101.60563 | 35897 ft | 427 kts | 273° |
| 2026-05-09 08:56 | 37.93555 | -101.68090 | 35884 ft | 428 kts | 273° |
| 2026-05-09 08:57 | 37.93655 | -101.75622 | 35887 ft | 428 kts | 273° |
| 2026-05-09 08:57 | 37.93747 | -101.83166 | 35888 ft | 428 kts | 273° |
| 2026-05-09 08:58 | 37.93834 | -101.90664 | 35893 ft | 429 kts | 273° |
| 2026-05-09 08:58 | 37.93914 | -101.98222 | 35900 ft | 429 kts | 273° |
| 2026-05-09 08:59 | 37.93989 | -102.05783 | 35894 ft | 429 kts | 272° |
| 2026-05-09 08:59 | 37.94067 | -102.13348 | 35901 ft | 430 kts | 272° |
| 2026-05-09 09:00 | 37.94136 | -102.20922 | 35906 ft | 430 kts | 272° |
| 2026-05-09 09:00 | 37.94198 | -102.28492 | 35910 ft | 430 kts | 272° |
| 2026-05-09 09:01 | 37.94256 | -102.36059 | 35913 ft | 430 kts | 272° |
| 2026-05-09 09:01 | 37.94312 | -102.43626 | 35899 ft | 429 kts | 272° |
| 2026-05-09 09:02 | 37.94359 | -102.51187 | 35903 ft | 429 kts | 272° |
| 2026-05-09 09:02 | 37.94398 | -102.58753 | 35907 ft | 429 kts | 272° |
| 2026-05-09 09:03 | 37.94437 | -102.66270 | 35904 ft | 429 kts | 272° |
| 2026-05-09 09:03 | 37.94474 | -102.73882 | 35904 ft | 429 kts | 272° |
| 2026-05-09 09:04 | 37.94505 | -102.81442 | 35891 ft | 429 kts | 272° |
| 2026-05-09 09:04 | 37.94527 | -102.89007 | 35909 ft | 429 kts | 271° |
| 2026-05-09 09:05 | 37.94545 | -102.96504 | 35914 ft | 428 kts | 271° |
| 2026-05-09 09:05 | 37.94562 | -103.04038 | 35914 ft | 427 kts | 271° |
| 2026-05-09 09:06 | 37.94579 | -103.11562 | 35908 ft | 427 kts | 271° |
| 2026-05-09 09:06 | 37.94583 | -103.19081 | 35893 ft | 426 kts | 271° |
| 2026-05-09 09:07 | 37.94574 | -103.26590 | 35889 ft | 426 kts | 271° |
| 2026-05-09 09:07 | 37.94574 | -103.34102 | 35891 ft | 426 kts | 271° |
| 2026-05-09 09:08 | 37.94572 | -103.41610 | 35892 ft | 426 kts | 271° |
| 2026-05-09 09:08 | 37.94557 | -103.49111 | 35892 ft | 426 kts | 271° |
| 2026-05-09 09:09 | 37.94542 | -103.56622 | 35874 ft | 426 kts | 271° |
| 2026-05-09 09:09 | 37.94526 | -103.64134 | 35876 ft | 427 kts | 271° |
| 2026-05-09 09:10 | 37.94499 | -103.71647 | 35878 ft | 427 kts | 271° |
| 2026-05-09 09:10 | 37.94461 | -103.79171 | 35888 ft | 427 kts | 271° |
| 2026-05-09 09:11 | 37.94421 | -103.86692 | 35877 ft | 427 kts | 271° |
| 2026-05-09 09:11 | 37.94378 | -103.94213 | 35886 ft | 427 kts | 271° |
| 2026-05-09 09:12 | 37.94333 | -104.01685 | 35894 ft | 427 kts | 271° |
| 2026-05-09 09:12 | 37.94288 | -104.09209 | 35901 ft | 427 kts | 271° |
| 2026-05-09 09:13 | 37.94229 | -104.16736 | 35896 ft | 427 kts | 270° |
| 2026-05-09 09:13 | 37.94166 | -104.24262 | 35892 ft | 427 kts | 270° |
| 2026-05-09 09:14 | 37.94107 | -104.31779 | 35898 ft | 427 kts | 270° |
| 2026-05-09 09:14 | 37.94032 | -104.39300 | 35904 ft | 427 kts | 270° |
| 2026-05-09 09:15 | 37.93953 | -104.46815 | 35903 ft | 427 kts | 270° |
| 2026-05-09 09:15 | 37.93876 | -104.54329 | 35906 ft | 427 kts | 270° |
| 2026-05-09 09:16 | 37.93787 | -104.61843 | 35906 ft | 427 kts | 270° |
| 2026-05-09 09:16 | 37.93648 | -104.73114 | 35908 ft | 427 kts | 270° |
| 2026-05-09 09:17 | 37.93556 | -104.80627 | 35911 ft | 427 kts | 270° |
| 2026-05-09 09:17 | 37.93455 | -104.88138 | 35911 ft | 426 kts | 270° |
| 2026-05-09 09:18 | 37.93342 | -104.95648 | 35921 ft | 426 kts | 270° |
| 2026-05-09 09:18 | 37.93230 | -105.03155 | 35925 ft | 426 kts | 270° |
| 2026-05-09 09:19 | 37.93118 | -105.10643 | 35934 ft | 425 kts | 270° |
| 2026-05-09 09:19 | 37.93007 | -105.18129 | 35933 ft | 425 kts | 270° |
| 2026-05-09 09:20 | 37.92881 | -105.25605 | 35954 ft | 424 kts | 270° |
| 2026-05-09 09:20 | 37.92746 | -105.33079 | 35946 ft | 425 kts | 269° |
| 2026-05-09 09:21 | 37.92606 | -105.40551 | 35964 ft | 425 kts | 269° |
| 2026-05-09 09:21 | 37.92472 | -105.48032 | 35964 ft | 425 kts | 270° |
| 2026-05-09 09:22 | 37.92335 | -105.55512 | 35966 ft | 425 kts | 269° |
| 2026-05-09 09:22 | 37.92182 | -105.62992 | 35965 ft | 425 kts | 269° |
| 2026-05-09 09:23 | 37.92029 | -105.70480 | 35933 ft | 426 kts | 269° |
| 2026-05-09 09:23 | 37.91873 | -105.77988 | 35936 ft | 427 kts | 269° |
| 2026-05-09 09:24 | 37.91705 | -105.85500 | 35925 ft | 427 kts | 269° |
| 2026-05-09 09:24 | 37.91561 | -105.91754 | 35929 ft | 427 kts | 269° |
| 2026-05-09 09:25 | 37.91362 | -106.00500 | 35939 ft | 428 kts | 269° |
| 2026-05-09 09:25 | 37.91187 | -106.08024 | 36003 ft | 427 kts | 269° |
| 2026-05-09 09:26 | 37.90989 | -106.15541 | 36043 ft | 427 kts | 269° |
| 2026-05-09 09:26 | 37.90829 | -106.21839 | 36082 ft | 427 kts | 269° |
| 2026-05-09 09:27 | 37.90647 | -106.29300 | 36100 ft | 427 kts | 269° |
| 2026-05-09 09:27 | 37.90458 | -106.36811 | 36108 ft | 427 kts | 269° |
| 2026-05-09 09:28 | 37.90257 | -106.44310 | 36105 ft | 426 kts | 269° |
| 2026-05-09 09:28 | 37.90051 | -106.51806 | 36098 ft | 426 kts | 269° |
| 2026-05-09 09:29 | 37.89836 | -106.59288 | 36074 ft | 425 kts | 269° |
| 2026-05-09 09:29 | 37.89620 | -106.66771 | 36059 ft | 425 kts | 269° |
| 2026-05-09 09:30 | 37.89405 | -106.74248 | 36025 ft | 425 kts | 269° |
| 2026-05-09 09:30 | 37.89184 | -106.81719 | 36042 ft | 425 kts | 269° |
| 2026-05-09 09:31 | 37.88957 | -106.89186 | 36046 ft | 424 kts | 269° |
| 2026-05-09 09:32 | 37.88595 | -107.00326 | 36065 ft | 424 kts | 269° |
| 2026-05-09 09:32 | 37.88360 | -107.07768 | 36057 ft | 423 kts | 269° |
| 2026-05-09 09:33 | 37.88120 | -107.15197 | 36057 ft | 422 kts | 269° |
| 2026-05-09 09:33 | 37.87874 | -107.22625 | 36069 ft | 422 kts | 269° |
| 2026-05-09 09:34 | 37.87624 | -107.30050 | 36065 ft | 422 kts | 268° |
| 2026-05-09 09:34 | 37.87365 | -107.37483 | 36069 ft | 422 kts | 268° |
| 2026-05-09 09:36 | 37.86295 | -107.67091 | 36058 ft | 420 kts | 268° |
| 2026-05-09 09:37 | 37.86016 | -107.74473 | 36047 ft | 420 kts | 269° |
| 2026-05-09 09:37 | 37.85729 | -107.81843 | 36271 ft | 419 kts | 268° |
| 2026-05-09 09:38 | 37.85440 | -107.89210 | 36297 ft | 419 kts | 269° |
| 2026-05-09 09:38 | 37.85145 | -107.96574 | 36283 ft | 419 kts | 268° |
| 2026-05-09 09:39 | 37.84848 | -108.03880 | 36245 ft | 419 kts | 268° |